Time;durP1;ratioP1;P1;durP2;ratioP2;P2;SDS_P1;SDS_P2;PMS_P1;PMS_P2;Temp;Humidity;BMP_temperature;BMP_pressure;BME280_temperature;BME280_humidity;BME280_pressure;Samples;Min_cycle;Max_cycle;Signal;HPM_P1;HPM_P2
2021/11/14 00:00:53;;;;;;;32.92;21.80;;;10.50;95.10;;;;;;5055763;28;20390;-79
2021/11/14 00:03:20;;;;;;;39.15;22.20;;;10.40;96.90;;;;;;5037672;28;20430;-78
2021/11/14 00:05:46;;;;;;;40.97;24.15;;;10.40;98.30;;;;;;5054365;28;20393;-79
2021/11/14 00:08:13;;;;;;;34.50;22.63;;;10.30;99.20;;;;;;5049973;28;20421;-79
2021/11/14 00:10:42;;;;;;;37.45;23.80;;;10.30;99.90;;;;;;5057927;28;20389;-80
2021/11/14 00:13:09;;;;;;;42.85;23.20;;;10.20;99.90;;;;;;5058727;28;20471;-79
2021/11/14 00:15:35;;;;;;;35.33;22.60;;;10.20;99.90;;;;;;5058450;28;20957;-80
2021/11/14 00:18:00;;;;;;;38.23;24.03;;;10.20;99.90;;;;;;5059371;28;20424;-79
2021/11/14 00:20:27;;;;;;;37.10;23.08;;;10.20;99.90;;;;;;5071152;28;20390;-79
2021/11/14 00:22:53;;;;;;;35.58;23.23;;;10.20;99.90;;;;;;5074393;28;20435;-79
2021/11/14 00:25:18;;;;;;;33.30;20.70;;;10.20;99.90;;;;;;5070153;28;20455;-80
2021/11/14 00:27:49;;;;;;;31.87;21.67;;;10.20;99.90;;;;;;5064700;28;20785;-79
2021/11/14 00:30:15;;;;;;;33.40;22.70;;;10.20;99.90;;;;;;5051675;28;20396;-79
2021/11/14 00:32:41;;;;;;;32.75;21.50;;;10.30;99.90;;;;;;5037299;28;20386;-79
2021/11/14 00:35:09;;;;;;;31.17;20.52;;;10.40;99.90;;;;;;5056998;28;20390;-79
2021/11/14 00:37:36;;;;;;;32.10;21.10;;;10.40;99.90;;;;;;5057347;28;20409;-79
2021/11/14 00:40:07;;;;;;;33.43;20.37;;;10.40;99.90;;;;;;5062295;28;20409;-79
2021/11/14 00:42:32;;;;;;;33.85;20.17;;;10.60;99.20;;;;;;5049392;28;20423;-79
2021/11/14 00:44:58;;;;;;;29.70;20.30;;;10.60;94.30;;;;;;5066733;28;20449;-78
2021/11/14 00:47:24;;;;;;;31.38;20.35;;;10.50;94.60;;;;;;5053453;28;20396;-78
2021/11/14 00:49:49;;;;;;;29.53;20.70;;;10.40;96.20;;;;;;5060131;28;20731;-79
2021/11/14 00:52:16;;;;;;;31.00;21.25;;;10.40;97.90;;;;;;5054878;28;20446;-80
2021/11/14 00:54:42;;;;;;;35.65;21.13;;;10.40;98.70;;;;;;5051951;28;20397;-80
2021/11/14 00:57:07;;;;;;;34.20;21.13;;;10.40;98.90;;;;;;5036286;28;20435;-79
2021/11/14 00:59:33;;;;;;;31.75;20.23;;;10.30;99.10;;;;;;5053312;28;20755;-76
2021/11/14 01:01:59;;;;;;;30.60;21.10;;;10.50;97.30;;;;;;5037484;28;20411;-76
2021/11/14 01:04:24;;;;;;;30.83;20.00;;;10.40;96.30;;;;;;5046683;28;20411;-78
2021/11/14 01:06:50;;;;;;;34.60;21.10;;;10.40;97.20;;;;;;5070131;28;20373;-77
2021/11/14 01:09:16;;;;;;;28.50;18.40;;;10.30;98.60;;;;;;5068064;28;20404;-78
2021/11/14 01:11:42;;;;;;;31.77;19.73;;;10.30;99.40;;;;;;5066574;28;20369;-78
2021/11/14 01:14:08;;;;;;;28.48;18.85;;;10.30;99.20;;;;;;5049151;28;20406;-78
2021/11/14 01:16:35;;;;;;;27.77;17.75;;;10.60;98.30;;;;;;5070177;28;20392;-77
2021/11/14 01:19:00;;;;;;;26.75;17.92;;;10.50;95.30;;;;;;5053347;28;20403;-78
2021/11/14 01:21:28;;;;;;;28.33;17.90;;;10.50;95.50;;;;;;5029707;28;20402;-76
2021/11/14 01:23:55;;;;;;;28.85;17.85;;;10.40;96.00;;;;;;5051827;28;20451;-78
2021/11/14 01:26:21;;;;;;;27.67;18.37;;;10.40;96.90;;;;;;5045658;28;20390;-77
2021/11/14 01:28:47;;;;;;;28.63;18.00;;;10.30;97.60;;;;;;5044468;28;20389;-77
2021/11/14 01:31:13;;;;;;;30.50;18.98;;;10.30;97.60;;;;;;5061712;28;20378;-78
2021/11/14 01:33:38;;;;;;;27.37;18.53;;;10.30;97.70;;;;;;5067981;28;20472;-78
2021/11/14 01:36:05;;;;;;;29.13;17.43;;;10.30;97.70;;;;;;5071635;28;20382;-78
2021/11/14 01:38:31;;;;;;;24.00;16.10;;;10.70;92.40;;;;;;5059480;28;20482;-78
2021/11/14 01:41:04;;;;;;;23.85;15.80;;;10.90;83.10;;;;;;5036825;28;20418;-79
2021/11/14 01:43:43;;;;;;;24.05;15.60;;;11.00;78.50;;;;;;5019062;28;20413;-79
2021/11/14 01:46:09;;;;;;;29.37;16.57;;;11.10;77.80;;;;;;5050245;28;20391;-79
2021/11/14 01:48:35;;;;;;;26.35;17.00;;;10.90;79.40;;;;;;5066682;28;20401;-78
2021/11/14 01:51:01;;;;;;;28.75;17.48;;;10.80;83.50;;;;;;5073963;28;20381;-78
2021/11/14 01:53:27;;;;;;;28.67;17.33;;;10.90;83.70;;;;;;5056073;28;20423;-78
2021/11/14 01:55:54;;;;;;;27.13;17.33;;;10.90;83.10;;;;;;5075155;28;20393;-78
2021/11/14 01:58:24;;;;;;;27.75;16.92;;;11.00;81.20;;;;;;5059992;28;20445;-79
2021/11/14 02:00:57;;;;;;;23.27;16.13;;;11.00;78.20;;;;;;5041680;28;20374;-79
2021/11/14 02:03:24;;;;;;;29.40;16.98;;;10.90;78.70;;;;;;5056267;28;20415;-78
2021/11/14 02:05:50;;;;;;;23.35;16.23;;;10.90;79.90;;;;;;5063677;28;20385;-80
2021/11/14 02:08:16;;;;;;;30.23;18.00;;;10.70;81.80;;;;;;5063870;28;20490;-77
2021/11/14 02:10:44;;;;;;;29.63;18.67;;;10.50;85.80;;;;;;5067738;28;20389;-79
2021/11/14 02:13:11;;;;;;;34.57;19.93;;;10.40;89.40;;;;;;5062267;28;20465;-78
2021/11/14 02:15:37;;;;;;;32.17;19.20;;;10.50;91.70;;;;;;5038562;28;20758;-79
2021/11/14 02:18:05;;;;;;;34.75;19.27;;;10.50;88.10;;;;;;5053239;28;20461;-79
2021/11/14 02:20:31;;;;;;;37.25;19.80;;;10.60;84.50;;;;;;5053965;28;20411;-80
2021/11/14 02:22:56;;;;;;;39.17;20.77;;;10.70;81.40;;;;;;5053178;28;20409;-78
2021/11/14 02:25:23;;;;;;;42.03;22.30;;;10.70;80.60;;;;;;5034449;28;20377;-79
2021/11/14 02:27:51;;;;;;;50.50;23.38;;;10.70;81.10;;;;;;5054376;28;20391;-78
2021/11/14 02:30:20;;;;;;;44.60;23.25;;;10.60;83.50;;;;;;5047793;28;20516;-78
2021/11/14 02:32:46;;;;;;;52.13;24.75;;;10.50;85.50;;;;;;5034144;28;20390;-78
2021/11/14 02:35:12;;;;;;;49.83;25.05;;;10.60;83.30;;;;;;5039160;28;20400;-79
2021/11/14 02:37:38;;;;;;;49.35;25.80;;;10.50;83.30;;;;;;5055057;28;20415;-78
2021/11/14 02:40:07;;;;;;;53.22;24.75;;;10.30;85.50;;;;;;5033600;28;20403;-79
2021/11/14 02:42:33;;;;;;;46.35;23.27;;;10.50;86.50;;;;;;5035175;28;20399;-78
2021/11/14 02:44:59;;;;;;;42.50;21.92;;;10.70;81.70;;;;;;5037531;28;20426;-78
2021/11/14 02:47:25;;;;;;;40.53;21.15;;;10.90;77.10;;;;;;5029394;28;20389;-79
2021/11/14 02:49:52;;;;;;;42.78;22.48;;;10.90;75.00;;;;;;5020503;28;20413;-79
2021/11/14 02:52:17;;;;;;;44.22;22.13;;;10.90;75.40;;;;;;5039336;28;20399;-78
2021/11/14 02:54:43;;;;;;;42.83;22.33;;;10.90;76.00;;;;;;5051245;28;20498;-79
2021/11/14 02:57:09;;;;;;;39.53;21.63;;;10.80;76.10;;;;;;5045020;28;20393;-78
2021/11/14 02:59:34;;;;;;;45.67;21.93;;;10.70;79.50;;;;;;5046874;28;20771;-78
2021/11/14 03:02:00;;;;;;;38.63;21.40;;;10.60;81.30;;;;;;5029057;28;20405;-78
2021/11/14 03:04:28;;;;;;;37.50;20.17;;;10.80;76.70;;;;;;5052553;28;20381;-78
2021/11/14 03:06:55;;;;;;;36.47;20.05;;;10.90;76.00;;;;;;5060855;28;20397;-78
2021/11/14 03:09:23;;;;;;;44.00;21.65;;;10.80;76.40;;;;;;5039063;28;20752;-78
2021/11/14 03:11:49;;;;;;;40.60;20.83;;;10.80;76.50;;;;;;5032737;28;20483;-78
2021/11/14 03:14:15;;;;;;;40.10;21.00;;;10.80;77.70;;;;;;5040491;28;20882;-78
2021/11/14 03:16:42;;;;;;;43.33;21.52;;;10.70;77.90;;;;;;5048418;28;20485;-79
2021/11/14 03:19:07;;;;;;;44.85;23.48;;;10.50;80.60;;;;;;5051747;28;20381;-78
2021/11/14 03:21:33;;;;;;;39.60;22.58;;;10.50;84.20;;;;;;5053937;28;20448;-79
2021/11/14 03:23:59;;;;;;;45.27;23.00;;;10.60;82.60;;;;;;5060661;28;20501;-78
2021/11/14 03:26:26;;;;;;;46.57;24.03;;;10.50;83.00;;;;;;5059615;28;20824;-75
2021/11/14 03:28:52;;;;;;;48.65;24.75;;;10.50;84.70;;;;;;5065649;28;20881;-79
2021/11/14 03:31:18;;;;;;;47.75;25.65;;;10.50;81.90;;;;;;5047834;28;20382;-79
2021/11/14 03:33:44;;;;;;;47.03;23.80;;;10.60;82.00;;;;;;5070971;28;20431;-79
2021/11/14 03:36:13;;;;;;;48.40;25.83;;;10.60;79.10;;;;;;5065076;28;20424;-78
2021/11/14 03:38:49;;;;;;;46.50;24.38;;;10.50;81.10;;;;;;5067837;28;20401;-76
2021/11/14 03:41:22;;;;;;;49.92;25.00;;;10.50;81.40;;;;;;5060642;28;20957;-79
2021/11/14 03:43:48;;;;;;;51.53;25.87;;;10.40;83.70;;;;;;5040958;28;20486;-79
2021/11/14 03:46:14;;;;;;;56.40;28.02;;;10.30;85.60;;;;;;5025599;28;20387;-80
2021/11/14 03:48:42;;;;;;;56.45;27.10;;;10.20;87.50;;;;;;5056529;28;20397;-79
2021/11/14 03:51:08;;;;;;;53.23;27.20;;;10.20;89.40;;;;;;5059775;28;20381;-81
2021/11/14 03:53:34;;;;;;;46.25;25.95;;;10.20;91.00;;;;;;5056205;28;20901;-78
2021/11/14 03:56:00;;;;;;;47.70;25.90;;;10.20;92.30;;;;;;5055870;28;20410;-79
2021/11/14 03:58:25;;;;;;;51.73;26.67;;;10.30;92.40;;;;;;5056465;28;20451;-78
2021/11/14 04:00:55;;;;;;;54.17;26.30;;;10.30;91.10;;;;;;5055377;28;20424;-78
2021/11/14 04:03:21;;;;;;;46.28;24.63;;;10.30;90.20;;;;;;5045014;28;20478;-79
2021/11/14 04:05:47;;;;;;;46.67;25.23;;;10.30;89.60;;;;;;5046062;28;20410;-78
2021/11/14 04:08:16;;;;;;;46.80;23.85;;;10.40;88.60;;;;;;5069066;28;20408;-77
2021/11/14 04:10:44;;;;;;;38.65;22.17;;;10.50;85.40;;;;;;5066513;28;20754;-79
2021/11/14 04:13:09;;;;;;;42.05;23.17;;;10.80;77.30;;;;;;5070881;28;20380;-78
2021/11/14 04:15:36;;;;;;;44.90;24.10;;;10.80;74.50;;;;;;5070651;28;20386;-78
2021/11/14 04:18:02;;;;;;;46.72;23.88;;;10.60;77.50;;;;;;5039023;28;20424;-78
2021/11/14 04:20:30;;;;;;;45.60;23.38;;;10.40;80.10;;;;;;5041475;28;20405;-78
2021/11/14 04:22:56;;;;;;;47.75;22.80;;;10.70;77.90;;;;;;5039800;28;20411;-77
2021/11/14 04:25:22;;;;;;;42.70;21.77;;;10.50;78.50;;;;;;5033835;28;20371;-77
2021/11/14 04:27:49;;;;;;;37.20;21.60;;;10.80;75.40;;;;;;5057298;28;20457;-78
2021/11/14 04:30:15;;;;;;;41.03;21.80;;;10.80;72.00;;;;;;5062225;28;20427;-76
2021/11/14 04:32:41;;;;;;;45.85;21.70;;;10.90;71.10;;;;;;5061838;28;20397;-77
2021/11/14 04:35:07;;;;;;;42.60;21.85;;;10.90;70.80;;;;;;5041423;28;20948;-77
2021/11/14 04:37:33;;;;;;;45.50;22.10;;;10.80;72.10;;;;;;5038080;28;20520;-77
2021/11/14 04:39:59;;;;;;;48.70;23.10;;;10.90;71.10;;;;;;5058208;28;20392;-76
2021/11/14 04:42:25;;;;;;;47.40;22.83;;;10.80;72.20;;;;;;5039547;28;20415;-78
2021/11/14 04:44:50;;;;;;;49.28;23.05;;;10.70;72.80;;;;;;5023987;28;20401;-77
2021/11/14 04:47:16;;;;;;;43.83;22.83;;;10.80;72.00;;;;;;5046766;28;20389;-77
2021/11/14 04:49:42;;;;;;;44.08;23.60;;;10.80;73.70;;;;;;5063029;28;20414;-77
2021/11/14 04:52:09;;;;;;;43.23;22.90;;;10.90;71.70;;;;;;5027004;28;20410;-78
2021/11/14 04:54:34;;;;;;;46.75;21.42;;;10.90;71.60;;;;;;5051684;28;20397;-78
2021/11/14 04:57:00;;;;;;;37.30;21.03;;;10.80;71.90;;;;;;5043158;28;20774;-77
2021/11/14 04:59:26;;;;;;;47.33;22.90;;;10.70;72.80;;;;;;5059126;28;20389;-77
2021/11/14 05:01:51;;;;;;;41.23;22.13;;;10.70;73.80;;;;;;5060554;28;20413;-77
2021/11/14 05:04:18;;;;;;;40.10;21.03;;;10.60;74.60;;;;;;5057400;28;20388;-78
2021/11/14 05:06:43;;;;;;;40.38;22.23;;;10.60;76.20;;;;;;5056506;28;20381;-76
2021/11/14 05:09:10;;;;;;;43.83;22.80;;;10.50;77.70;;;;;;5046542;28;20385;-77
2021/11/14 05:11:36;;;;;;;41.80;23.63;;;10.40;80.00;;;;;;5052925;28;20422;-76
2021/11/14 05:14:02;;;;;;;45.90;22.77;;;10.30;83.10;;;;;;5044799;28;20394;-76
2021/11/14 05:16:28;;;;;;;42.90;22.85;;;10.40;83.90;;;;;;5057751;28;20382;-76
2021/11/14 05:18:53;;;;;;;42.65;22.88;;;10.40;82.60;;;;;;5040399;28;20401;-78
2021/11/14 05:21:19;;;;;;;40.63;22.13;;;10.50;82.20;;;;;;5043804;28;20387;-78
2021/11/14 05:23:45;;;;;;;37.47;21.43;;;10.50;80.50;;;;;;5050596;28;20439;-78
2021/11/14 05:26:11;;;;;;;38.13;20.83;;;10.50;79.80;;;;;;5027133;28;20545;-76
2021/11/14 05:28:38;;;;;;;37.03;20.85;;;10.60;78.60;;;;;;5056576;28;20419;-76
2021/11/14 05:31:04;;;;;;;37.35;21.95;;;10.50;79.90;;;;;;5055117;28;20391;-77
2021/11/14 05:33:29;;;;;;;35.33;21.53;;;10.50;79.80;;;;;;5043309;28;20399;-76
2021/11/14 05:35:55;;;;;;;42.38;23.70;;;10.50;80.80;;;;;;5037988;28;20393;-76
2021/11/14 05:38:21;;;;;;;43.55;23.25;;;10.50;79.80;;;;;;5046823;28;20440;-77
2021/11/14 05:40:46;;;;;;;45.45;23.92;;;10.50;80.70;;;;;;5059589;28;20783;-76
2021/11/14 05:43:13;;;;;;;39.30;23.20;;;10.40;81.20;;;;;;5044467;28;20437;-78
2021/11/14 05:45:39;;;;;;;42.10;24.98;;;10.40;82.60;;;;;;5049218;28;20411;-75
2021/11/14 05:48:05;;;;;;;48.03;25.50;;;10.30;83.60;;;;;;5058830;28;20400;-76
2021/11/14 05:50:31;;;;;;;44.42;25.50;;;10.30;84.00;;;;;;5066517;28;20389;-78
2021/11/14 05:52:57;;;;;;;50.80;28.50;;;10.30;82.20;;;;;;5046816;28;20402;-79
2021/11/14 05:55:23;;;;;;;58.25;31.90;;;10.30;79.90;;;;;;5063023;28;20393;-79
2021/11/14 05:57:55;;;;;;;61.72;32.92;;;10.20;79.40;;;;;;5056651;28;20397;-79
2021/11/14 06:00:35;;;;;;;60.78;33.05;;;10.20;79.50;;;;;;5059073;28;20385;-77
2021/11/14 06:05:33;;;;;;;62.37;34.67;;;10.20;77.90;;;;;;5060140;28;20396;-78
2021/11/14 06:07:59;;;;;;;62.63;33.97;;;10.20;78.40;;;;;;5043108;28;20455;-77
2021/11/14 06:10:25;;;;;;;62.88;34.05;;;10.20;79.60;;;;;;5060907;28;20445;-77
2021/11/14 06:12:50;;;;;;;66.63;34.95;;;10.10;78.70;;;;;;5072594;28;20432;-73
2021/11/14 06:15:18;;;;;;;65.00;34.65;;;10.10;76.70;;;;;;5074500;28;20411;-77
2021/11/14 06:17:44;;;;;;;64.85;35.53;;;10.10;77.20;;;;;;5069048;28;20439;-79
2021/11/14 06:20:10;;;;;;;66.00;36.03;;;10.00;76.10;;;;;;5071747;28;20468;-78
2021/11/14 06:22:36;;;;;;;71.75;36.72;;;10.00;74.90;;;;;;5034787;28;20425;-75
2021/11/14 06:25:02;;;;;;;68.63;37.13;;;9.90;73.70;;;;;;5055392;28;20409;-77
2021/11/14 06:27:27;;;;;;;68.13;37.00;;;9.90;74.90;;;;;;5053280;28;20400;-77
2021/11/14 06:29:53;;;;;;;70.03;37.43;;;9.90;73.40;;;;;;5071223;28;20386;-76
2021/11/14 06:32:18;;;;;;;66.82;37.65;;;9.80;74.80;;;;;;5056812;28;20433;-77
2021/11/14 06:34:45;;;;;;;65.53;35.92;;;9.80;76.50;;;;;;5033407;28;20378;-77
2021/11/14 06:37:11;;;;;;;66.50;35.72;;;9.80;76.10;;;;;;5065417;28;20400;-79
2021/11/14 06:39:38;;;;;;;67.47;35.95;;;9.80;74.60;;;;;;5063275;28;20393;-77
2021/11/14 06:42:05;;;;;;;62.80;34.87;;;9.80;76.30;;;;;;5032858;28;20453;-79
2021/11/14 06:44:31;;;;;;;60.85;34.10;;;9.80;76.20;;;;;;5025930;28;20391;-78
2021/11/14 06:46:57;;;;;;;60.45;33.95;;;9.80;75.80;;;;;;5044945;28;20398;-77
2021/11/14 06:49:22;;;;;;;60.17;33.90;;;9.80;73.80;;;;;;5065499;28;20385;-77
2021/11/14 06:51:50;;;;;;;58.22;33.50;;;9.80;75.00;;;;;;5057886;28;20398;-77
2021/11/14 06:54:16;;;;;;;59.10;32.80;;;9.80;74.80;;;;;;5053080;28;20457;-79
2021/11/14 06:56:42;;;;;;;58.50;33.25;;;9.80;76.00;;;;;;5042539;28;20451;-78
2021/11/14 06:59:07;;;;;;;56.58;32.58;;;9.70;76.30;;;;;;5041287;28;20393;-79
2021/11/14 07:01:33;;;;;;;54.97;30.47;;;9.80;76.30;;;;;;5052447;28;20883;-78
2021/11/14 07:03:58;;;;;;;54.97;30.80;;;9.90;71.90;;;;;;5046592;28;20394;-80
2021/11/14 07:06:24;;;;;;;53.70;31.43;;;9.90;71.00;;;;;;5063751;28;20397;-79
2021/11/14 07:08:50;;;;;;;59.10;32.40;;;9.80;73.30;;;;;;5065579;28;20460;-78
2021/11/14 07:11:17;;;;;;;56.73;32.17;;;9.70;75.70;;;;;;5065914;28;20388;-78
2021/11/14 07:13:44;;;;;;;60.17;32.70;;;9.60;77.60;;;;;;5063532;28;21472;-79
2021/11/14 07:16:09;;;;;;;55.95;32.28;;;9.70;76.90;;;;;;5051732;28;20477;-78
2021/11/14 07:18:35;;;;;;;55.27;31.20;;;9.80;72.50;;;;;;5066734;28;20397;-77
2021/11/14 07:21:01;;;;;;;57.33;33.60;;;9.80;72.40;;;;;;5074796;28;20412;-74
2021/11/14 07:23:27;;;;;;;53.20;32.08;;;9.80;73.10;;;;;;5066192;28;20409;-78
2021/11/14 07:25:52;;;;;;;56.53;31.80;;;9.80;73.00;;;;;;5052488;28;20456;-80
2021/11/14 07:28:18;;;;;;;51.47;31.63;;;9.90;72.30;;;;;;5039760;28;20393;-78
2021/11/14 07:30:44;;;;;;;49.97;31.30;;;10.00;67.00;;;;;;5072769;28;20421;-77
2021/11/14 07:33:10;;;;;;;56.53;32.95;;;9.90;69.50;;;;;;5054192;28;20472;-76
2021/11/14 07:35:36;;;;;;;72.13;39.53;;;9.90;70.10;;;;;;5049683;28;20420;-75
2021/11/14 07:38:02;;;;;;;58.30;32.80;;;10.00;66.50;;;;;;5055163;28;20423;-77
2021/11/14 07:40:28;;;;;;;51.13;31.17;;;10.00;66.20;;;;;;5072041;28;20399;-79
2021/11/14 07:42:55;;;;;;;54.15;32.88;;;9.80;68.80;;;;;;5064187;28;20435;-77
2021/11/14 07:45:23;;;;;;;56.38;32.15;;;9.70;70.90;;;;;;5035505;28;20401;-80
2021/11/14 07:47:50;;;;;;;51.25;31.40;;;9.90;69.50;;;;;;5026801;28;20776;-82
2021/11/14 07:50:17;;;;;;;60.95;32.65;;;9.90;67.60;;;;;;5045468;28;20389;-82
2021/11/14 07:52:44;;;;;;;49.67;30.25;;;9.90;67.20;;;;;;5041622;28;20406;-80
2021/11/14 07:55:10;;;;;;;56.50;33.00;;;10.00;65.40;;;;;;5043395;28;20723;-82
2021/11/14 07:57:43;;;;;;;57.30;32.35;;;9.80;68.30;;;;;;5065881;28;20432;-81
2021/11/14 08:00:15;;;;;;;52.72;29.52;;;9.70;73.50;;;;;;5054513;28;20401;-81
2021/11/14 08:02:42;;;;;;;52.80;31.70;;;9.80;68.60;;;;;;5065058;28;20417;-78
2021/11/14 08:05:08;;;;;;;50.65;29.52;;;9.70;71.10;;;;;;5065264;28;20402;-80
2021/11/14 08:07:34;;;;;;;50.17;29.85;;;9.80;69.30;;;;;;5062340;28;20389;-82
2021/11/14 08:10:00;;;;;;;58.47;30.92;;;9.70;71.10;;;;;;5042412;28;20421;-81
2021/11/14 08:12:25;;;;;;;56.97;31.30;;;9.70;71.50;;;;;;5056535;28;20397;-81
2021/11/14 08:14:51;;;;;;;59.72;31.40;;;9.80;67.90;;;;;;5052801;28;20821;-74
2021/11/14 08:17:17;;;;;;;57.28;30.00;;;9.90;66.20;;;;;;5049485;28;20415;-78
2021/11/14 08:19:43;;;;;;;54.53;29.75;;;10.00;65.60;;;;;;5049519;28;20419;-81
2021/11/14 08:22:09;;;;;;;57.90;29.43;;;10.00;66.20;;;;;;5061711;28;20457;-76
2021/11/14 08:24:34;;;;;;;49.80;26.80;;;10.00;64.50;;;;;;5052623;28;20419;-81
2021/11/14 08:27:00;;;;;;;53.20;28.40;;;9.90;66.60;;;;;;5064973;28;20393;-80
2021/11/14 08:29:26;;;;;;;56.07;29.07;;;10.10;65.30;;;;;;5065209;28;20389;-79
2021/11/14 08:31:51;;;;;;;49.07;28.30;;;10.10;64.80;;;;;;5064924;28;20385;-78
2021/11/14 08:34:17;;;;;;;46.70;28.03;;;10.00;65.30;;;;;;5057036;28;20402;-77
2021/11/14 08:36:42;;;;;;;48.00;28.33;;;9.80;67.50;;;;;;5063080;28;20413;-78
2021/11/14 08:39:08;;;;;;;48.60;28.37;;;9.80;68.80;;;;;;5062894;28;20439;-79
2021/11/14 08:41:34;;;;;;;50.70;28.03;;;9.80;70.50;;;;;;5050483;28;20397;-78
2021/11/14 08:44:00;;;;;;;47.03;27.13;;;10.00;67.00;;;;;;5048034;28;20423;-80
2021/11/14 08:46:26;;;;;;;46.65;26.30;;;10.20;62.60;;;;;;5066442;28;20417;-79
2021/11/14 08:48:53;;;;;;;43.75;25.88;;;10.20;62.10;;;;;;5048277;28;20391;-78
2021/11/14 08:51:19;;;;;;;49.47;27.23;;;10.20;61.40;;;;;;5066348;28;20475;-80
2021/11/14 08:53:45;;;;;;;43.85;25.25;;;10.20;61.70;;;;;;5050532;28;20402;-77
2021/11/14 08:56:11;;;;;;;45.63;26.03;;;10.30;61.90;;;;;;5059444;28;20429;-78
2021/11/14 08:58:37;;;;;;;49.10;25.93;;;10.50;59.20;;;;;;5051768;28;20417;-77
2021/11/14 09:01:07;;;;;;;44.47;25.90;;;10.40;60.70;;;;;;5061399;28;20734;-80
2021/11/14 09:03:33;;;;;;;47.80;26.20;;;10.50;62.20;;;;;;5064122;28;20401;-79
2021/11/14 09:05:59;;;;;;;43.92;25.70;;;10.50;59.10;;;;;;5060497;28;20467;-80
2021/11/14 09:08:25;;;;;;;44.00;25.45;;;10.50;60.60;;;;;;5046692;28;20401;-78
2021/11/14 09:10:51;;;;;;;45.53;25.60;;;10.60;58.70;;;;;;5061716;28;20507;-79
2021/11/14 09:13:16;;;;;;;42.07;24.63;;;10.50;59.60;;;;;;5039447;28;20401;-77
2021/11/14 09:15:43;;;;;;;41.83;25.07;;;10.60;58.60;;;;;;5062930;28;20898;-78
2021/11/14 09:18:09;;;;;;;46.58;25.38;;;10.50;60.20;;;;;;5059648;28;20405;-76
2021/11/14 09:20:35;;;;;;;40.97;24.73;;;10.60;58.70;;;;;;5060404;28;20381;-76
2021/11/14 09:23:00;;;;;;;44.55;25.00;;;10.70;57.70;;;;;;5055403;28;20522;-76
2021/11/14 09:25:26;;;;;;;39.13;22.92;;;10.70;58.30;;;;;;5051037;28;20421;-77
2021/11/14 09:27:53;;;;;;;36.30;22.33;;;10.80;56.80;;;;;;5045884;28;20481;-78
2021/11/14 09:30:19;;;;;;;37.47;21.83;;;10.90;56.90;;;;;;5052369;28;20411;-78
2021/11/14 09:32:45;;;;;;;36.90;20.55;;;10.90;55.10;;;;;;5035894;28;20406;-77
2021/11/14 09:35:11;;;;;;;31.80;20.67;;;11.10;53.60;;;;;;5031257;28;20403;-77
2021/11/14 09:37:37;;;;;;;34.10;20.70;;;11.00;53.40;;;;;;5052951;28;20405;-77
2021/11/14 09:40:05;;;;;;;31.88;19.50;;;11.00;53.40;;;;;;5034385;28;20408;-78
2021/11/14 09:42:32;;;;;;;30.70;20.15;;;11.00;55.20;;;;;;5054571;28;20474;-76
2021/11/14 09:44:58;;;;;;;29.45;18.27;;;11.00;55.20;;;;;;5057860;28;20394;-78
2021/11/14 09:47:23;;;;;;;34.40;19.10;;;11.10;53.30;;;;;;5058806;28;20390;-78
2021/11/14 09:49:49;;;;;;;24.17;17.97;;;11.20;53.00;;;;;;5061473;28;20430;-78
2021/11/14 09:52:15;;;;;;;26.07;16.60;;;11.20;53.50;;;;;;5052925;28;20406;-77
2021/11/14 09:54:41;;;;;;;25.67;16.00;;;11.10;53.40;;;;;;5051110;28;20806;-76
2021/11/14 09:57:08;;;;;;;25.23;16.85;;;11.10;53.90;;;;;;5051098;28;20396;-76
2021/11/14 09:59:34;;;;;;;22.23;15.77;;;11.10;54.30;;;;;;5032440;28;20935;-77
2021/11/14 10:02:02;;;;;;;21.90;14.77;;;11.10;54.60;;;;;;5046496;28;20487;-76
2021/11/14 10:04:29;;;;;;;21.05;14.00;;;11.30;54.10;;;;;;5049587;28;20493;-77
2021/11/14 10:07:06;;;;;;;19.02;12.43;;;11.50;51.60;;;;;;5047450;28;20455;-76
2021/11/14 10:09:43;;;;;;;19.88;10.98;;;11.60;48.90;;;;;;5036425;28;20484;-76
2021/11/14 10:12:20;;;;;;;16.50;11.02;;;11.50;48.40;;;;;;5030890;28;20397;-75
2021/11/14 10:14:48;;;;;;;14.70;10.80;;;11.60;46.80;;;;;;5042371;28;20510;-76
2021/11/14 10:17:18;;;;;;;15.50;11.20;;;11.70;46.00;;;;;;5049676;28;20763;-79
2021/11/14 10:19:45;;;;;;;16.43;11.47;;;11.70;46.90;;;;;;5031977;28;20466;-73
2021/11/14 10:22:10;;;;;;;16.05;11.13;;;11.70;46.30;;;;;;5050626;28;20561;-74
2021/11/14 10:24:37;;;;;;;18.05;12.65;;;11.60;47.20;;;;;;5050132;28;20401;-74
2021/11/14 10:27:12;;;;;;;16.88;11.15;;;11.80;45.60;;;;;;5048771;28;20671;-74
2021/11/14 10:29:39;;;;;;;17.00;10.20;;;11.80;45.20;;;;;;5047699;28;20397;-76
2021/11/14 10:32:09;;;;;;;14.60;10.82;;;11.80;44.90;;;;;;5047477;28;20893;-78
2021/11/14 10:34:48;;;;;;;14.27;9.40;;;11.80;45.80;;;;;;5049510;28;20957;-75
2021/11/14 10:37:18;;;;;;;13.25;9.45;;;11.90;44.40;;;;;;5053163;28;20395;-76
2021/11/14 10:39:43;;;;;;;12.93;8.40;;;12.10;42.30;;;;;;5043461;28;20804;-76
2021/11/14 10:42:18;;;;;;;8.82;7.00;;;12.10;42.40;;;;;;5053091;28;20416;-76
2021/11/14 10:44:49;;;;;;;10.75;6.15;;;12.00;41.60;;;;;;5051754;28;20389;-78
2021/11/14 10:47:21;;;;;;;7.35;4.88;;;11.90;41.20;;;;;;5060240;28;20413;-78
2021/11/14 10:50:08;;;;;;;9.00;4.60;;;11.90;40.80;;;;;;5040833;28;20797;-79
2021/11/14 10:52:36;;;;;;;5.30;4.80;;;11.90;39.90;;;;;;5060373;28;20404;-80
2021/11/14 10:55:07;;;;;;;5.03;4.45;;;11.90;40.90;;;;;;5061857;28;20407;-80
2021/11/14 10:57:34;;;;;;;6.82;5.40;;;11.90;40.10;;;;;;5053993;28;20401;-76
2021/11/14 11:00:01;;;;;;;8.82;5.88;;;11.80;40.90;;;;;;5056582;28;20485;-77
2021/11/14 11:02:28;;;;;;;10.93;6.30;;;11.70;41.30;;;;;;5044652;28;20903;-78
2021/11/14 11:04:54;;;;;;;9.50;6.50;;;11.60;43.70;;;;;;5059149;28;20397;-77
2021/11/14 11:07:22;;;;;;;8.15;6.30;;;11.50;43.50;;;;;;5060741;28;20480;-77
2021/11/14 11:09:57;;;;;;;7.65;6.43;;;11.60;43.40;;;;;;5040946;28;20394;-77
2021/11/14 11:12:26;;;;;;;6.35;5.20;;;11.60;43.70;;;;;;5034137;28;20898;-76
2021/11/14 11:15:03;;;;;;;6.90;5.50;;;11.70;41.40;;;;;;5045821;28;20674;-76
2021/11/14 11:17:50;;;;;;;6.95;5.30;;;11.60;42.50;;;;;;5049847;28;20410;-75
2021/11/14 11:20:19;;;;;;;5.40;4.35;;;11.60;42.30;;;;;;5050301;28;20401;-75
2021/11/14 11:22:52;;;;;;;4.72;4.20;;;11.60;40.30;;;;;;5056071;28;20416;-77
2021/11/14 11:25:36;;;;;;;4.82;4.32;;;11.70;41.10;;;;;;5053347;28;20858;-77
2021/11/14 11:28:16;;;;;;;5.18;4.43;;;11.70;40.60;;;;;;5051011;28;20437;-78
2021/11/14 11:30:45;;;;;;;5.00;4.10;;;11.60;40.10;;;;;;5057130;28;20412;-77
2021/11/14 11:33:10;;;;;;;4.95;4.00;;;11.60;40.60;;;;;;5056354;28;20400;-79
2021/11/14 11:35:36;;;;;;;6.17;4.27;;;11.90;39.40;;;;;;5071556;28;20631;-77
2021/11/14 11:38:04;;;;;;;6.32;4.00;;;12.00;40.00;;;;;;5046687;28;20400;-75
2021/11/14 11:40:30;;;;;;;3.60;3.30;;;12.00;40.50;;;;;;5058278;28;20792;-76
2021/11/14 11:42:56;;;;;;;6.40;4.43;;;12.10;39.80;;;;;;5059258;28;20412;-75
2021/11/14 11:45:40;;;;;;;7.27;4.27;;;12.40;38.60;;;;;;5057152;28;20750;-77
2021/11/14 11:48:25;;;;;;;5.20;4.55;;;12.60;37.60;;;;;;5036187;28;20401;-77
2021/11/14 11:51:03;;;;;;;7.40;4.75;;;12.60;37.60;;;;;;5051857;28;20434;-77
2021/11/14 11:53:29;;;;;;;7.80;5.28;;;12.80;36.60;;;;;;5052357;28;20486;-76
2021/11/14 11:56:08;;;;;;;6.60;5.30;;;12.80;36.40;;;;;;5054097;28;20417;-76
2021/11/14 11:58:54;;;;;;;14.00;8.18;;;12.80;37.70;;;;;;5048637;28;20892;-77
2021/11/14 12:01:31;;;;;;;18.98;11.30;;;12.80;37.80;;;;;;5051323;28;20484;-76
2021/11/14 12:04:13;;;;;;;15.80;11.30;;;12.70;38.30;;;;;;5053635;28;20411;-77
2021/11/14 12:06:47;;;;;;;17.58;12.20;;;12.50;39.80;;;;;;5036412;28;20390;-78
2021/11/14 12:09:15;;;;;;;18.85;13.40;;;12.50;40.40;;;;;;5049858;28;20484;-75
2021/11/14 12:11:43;;;;;;;21.20;14.45;;;12.30;41.00;;;;;;5051850;28;20393;-76
2021/11/14 12:14:20;;;;;;;20.45;14.50;;;12.20;42.00;;;;;;5058759;28;20389;-76
2021/11/14 12:17:09;;;;;;;19.80;14.68;;;12.00;42.60;;;;;;5057427;28;20402;-75
2021/11/14 12:19:37;;;;;;;22.40;14.63;;;11.90;44.30;;;;;;5054807;28;20382;-75
2021/11/14 12:22:12;;;;;;;19.05;13.13;;;12.00;45.40;;;;;;5046694;28;20500;-75
2021/11/14 12:24:53;;;;;;;20.70;14.10;;;11.90;43.60;;;;;;5049959;28;20975;-75
2021/11/14 12:27:24;;;;;;;21.30;13.43;;;11.90;44.00;;;;;;5039874;28;20744;-76
2021/11/14 12:30:08;;;;;;;20.85;14.35;;;11.80;44.20;;;;;;5054176;28;20397;-76
2021/11/14 12:32:42;;;;;;;20.30;13.65;;;12.00;45.70;;;;;;5031848;28;20524;-77
2021/11/14 12:35:24;;;;;;;19.42;13.07;;;12.00;44.30;;;;;;5051788;28;20401;-77